Time;durP1;ratioP1;P1;durP2;ratioP2;P2;SDS_P1;SDS_P2;PMS_P1;PMS_P2;Temp;Humidity;BMP_temperature;BMP_pressure;BME280_temperature;BME280_humidity;BME280_pressure;Samples;Min_cycle;Max_cycle;Signal;HPM_P1;HPM_P2
2021/11/04 00:02:38;;;;;;;9.70;7.73;;;;;;;;;;5091425;28;20217;-79
2021/11/04 00:05:25;;;;;;;7.67;7.07;;;;;;;;;;5090935;28;20315;-79
2021/11/04 00:08:10;;;;;;;6.83;6.23;;;;;;;;;;5090131;28;20283;-79
2021/11/04 00:10:55;;;;;;;10.70;7.60;;;;;;;;;;5090613;28;20251;-79
2021/11/04 00:13:40;;;;;;;7.13;6.53;;;;;;;;;;5090831;28;20227;-78
2021/11/04 00:16:25;;;;;;;8.37;7.67;;;;;;;;;;5090868;28;20193;-78
2021/11/04 00:19:10;;;;;;;8.23;7.43;;;;;;;;;;5093022;28;20200;-78
2021/11/04 00:21:57;;;;;;;8.27;7.40;;;;;;;;;;5094285;28;20228;-79
2021/11/04 00:24:42;;;;;;;7.93;7.20;;;;;;;;;;5094010;28;20204;-79
2021/11/04 00:27:27;;;;;;;8.53;7.43;;;;;;;;;;5094056;28;20185;-78
2021/11/04 00:30:13;;;;;;;8.57;7.00;;;;;;;;;;5093869;28;20326;-79
2021/11/04 00:32:58;;;;;;;8.20;7.50;;;;;;;;;;5094315;28;20397;-79
2021/11/04 00:35:43;;;;;;;7.73;6.90;;;;;;;;;;5093558;28;20177;-79
2021/11/04 00:38:29;;;;;;;7.47;6.87;;;;;;;;;;5093953;28;20229;-79
2021/11/04 00:41:14;;;;;;;9.90;6.80;;;;;;;;;;5093773;28;20229;-79
2021/11/04 00:44:02;;;;;;;7.67;6.97;;;;;;;;;;5093527;28;20286;-79
2021/11/04 00:46:47;;;;;;;7.43;6.70;;;;;;;;;;5094141;28;20637;-78
2021/11/04 00:49:32;;;;;;;6.87;6.27;;;;;;;;;;5093492;28;20296;-79
2021/11/04 00:52:18;;;;;;;6.90;6.30;;;;;;;;;;5093594;28;20193;-78
2021/11/04 00:55:06;;;;;;;7.80;6.10;;;;;;;;;;5093141;28;20186;-79
2021/11/04 00:57:51;;;;;;;8.30;6.67;;;;;;;;;;5093876;28;20223;-79
2021/11/04 01:00:36;;;;;;;7.27;6.63;;;;;;;;;;5093105;28;20243;-79
2021/11/04 01:03:22;;;;;;;7.00;6.50;;;;;;;;;;5093296;28;20221;-78
2021/11/04 01:06:07;;;;;;;7.10;6.40;;;;;;;;;;5093689;28;20634;-79
2021/11/04 01:08:52;;;;;;;8.20;7.20;;;;;;;;;;5093084;28;20601;-78
2021/11/04 01:11:39;;;;;;;7.30;6.70;;;;;;;;;;5093224;28;20204;-79
2021/11/04 01:14:24;;;;;;;8.50;7.53;;;;;;;;;;5092683;28;20189;-78
2021/11/04 01:17:09;;;;;;;7.47;6.77;;;;;;;;;;5093220;28;20254;-79
2021/11/04 01:19:54;;;;;;;7.37;6.77;;;;;;;;;;5093099;28;20862;-79
2021/11/04 01:22:39;;;;;;;7.90;7.20;;;;;;;;;;5093218;28;20184;-79
2021/11/04 01:25:24;;;;;;;7.10;6.50;;;;;;;;;;5092689;28;20324;-79
2021/11/04 01:28:10;;;;;;;8.00;7.13;;;;;;;;;;5092570;28;20189;-80
2021/11/04 01:30:55;;;;;;;8.00;7.30;;;;;;;;;;5092709;28;20543;-79
2021/11/04 01:33:40;;;;;;;7.27;6.57;;;;;;;;;;5092533;28;20201;-79
2021/11/04 01:36:25;;;;;;;7.77;6.83;;;;;;;;;;5092957;28;20192;-80
2021/11/04 01:39:10;;;;;;;6.47;5.87;;;;;;;;;;5092879;28;20209;-79
2021/11/04 01:41:55;;;;;;;7.33;5.90;;;;;;;;;;5092560;28;20232;-79
2021/11/04 01:44:42;;;;;;;7.27;6.57;;;;;;;;;;5092429;28;20278;-79
2021/11/04 01:47:27;;;;;;;9.13;6.17;;;;;;;;;;5092499;28;20207;-79
2021/11/04 01:50:12;;;;;;;7.13;6.53;;;;;;;;;;5092533;28;20228;-79
2021/11/04 01:52:57;;;;;;;7.73;6.90;;;;;;;;;;5092254;28;20193;-80
2021/11/04 01:55:42;;;;;;;8.20;6.77;;;;;;;;;;5092485;28;20664;-79
2021/11/04 01:58:27;;;;;;;7.93;6.83;;;;;;;;;;5092230;28;20204;-79
2021/11/04 02:01:15;;;;;;;7.57;6.97;;;;;;;;;;5092289;28;20193;-79
2021/11/04 02:04:02;;;;;;;7.57;6.67;;;;;;;;;;5091695;28;20209;-80
2021/11/04 02:06:50;;;;;;;7.00;6.40;;;;;;;;;;5092451;28;20263;-78
2021/11/04 02:09:37;;;;;;;8.23;7.50;;;;;;;;;;5092259;28;20189;-79
2021/11/04 02:12:26;;;;;;;7.60;7.00;;;;;;;;;;5092122;28;20259;-79
2021/11/04 02:15:12;;;;;;;8.17;7.33;;;;;;;;;;5091995;28;20235;-80
2021/11/04 02:17:59;;;;;;;8.30;6.60;;;;;;;;;;5092074;28;20197;-80
2021/11/04 02:20:51;;;;;;;7.43;6.23;;;;;;;;;;5091950;28;20258;-79
2021/11/04 02:23:41;;;;;;;6.77;5.37;;;;;;;;;;5091986;28;20669;-79
2021/11/04 02:26:28;;;;;;;5.67;5.23;;;;;;;;;;5091879;28;20189;-79
2021/11/04 02:29:14;;;;;;;4.87;4.50;;;;;;;;;;5091397;28;20205;-79
2021/11/04 02:31:59;;;;;;;5.40;4.70;;;;;;;;;;5091877;28;20549;-80
2021/11/04 02:34:45;;;;;;;4.17;3.80;;;;;;;;;;5091866;28;20232;-80
2021/11/04 02:37:31;;;;;;;3.50;3.20;;;;;;;;;;5091792;28;20185;-80
2021/11/04 02:40:17;;;;;;;3.43;2.87;;;;;;;;;;5090669;28;20407;-79
2021/11/04 02:43:03;;;;;;;3.47;3.17;;;;;;;;;;5091889;28;20312;-79
2021/11/04 02:45:48;;;;;;;2.80;2.70;;;;;;;;;;5091937;28;20204;-79
2021/11/04 02:48:34;;;;;;;3.10;2.90;;;;;;;;;;5091813;28;20201;-80
2021/11/04 02:51:19;;;;;;;3.40;3.10;;;;;;;;;;5091689;28;20576;-80
2021/11/04 02:54:06;;;;;;;3.30;2.90;;;;;;;;;;5091605;28;20548;-79
2021/11/04 02:56:53;;;;;;;2.80;2.70;;;;;;;;;;5091796;28;20227;-80
2021/11/04 02:59:39;;;;;;;3.07;2.87;;;;;;;;;;5091253;28;20177;-79
2021/11/04 03:02:24;;;;;;;3.10;2.90;;;;;;;;;;5091395;28;20699;-79
2021/11/04 03:05:09;;;;;;;2.97;2.80;;;;;;;;;;5091345;28;20208;-79
2021/11/04 03:07:54;;;;;;;2.97;2.73;;;;;;;;;;5091388;28;20200;-80
2021/11/04 03:10:40;;;;;;;3.73;2.53;;;;;;;;;;5091614;28;20231;-80
2021/11/04 03:13:25;;;;;;;2.33;2.23;;;;;;;;;;5091344;28;20185;-80
2021/11/04 03:16:12;;;;;;;2.40;2.30;;;;;;;;;;5091531;28;20731;-79
2021/11/04 03:18:58;;;;;;;2.50;2.40;;;;;;;;;;5091309;28;20185;-79
2021/11/04 03:21:45;;;;;;;3.37;1.93;;;;;;;;;;5091569;28;20185;-79
2021/11/04 03:24:31;;;;;;;2.93;1.90;;;;;;;;;;5091260;28;20282;-80
2021/11/04 03:27:17;;;;;;;4.40;1.90;;;;;;;;;;5090942;28;20185;-80
2021/11/04 03:30:03;;;;;;;1.70;1.70;;;;;;;;;;5091337;28;20549;-80
2021/11/04 03:32:50;;;;;;;4.30;1.60;;;;;;;;;;5091031;28;20189;-80
2021/11/04 03:35:36;;;;;;;1.87;1.77;;;;;;;;;;5091182;28;20504;-80
2021/11/04 03:38:22;;;;;;;2.03;1.80;;;;;;;;;;5090632;28;20661;-80
2021/11/04 03:41:08;;;;;;;2.20;2.10;;;;;;;;;;5091148;28;20291;-80
2021/11/04 03:43:53;;;;;;;1.80;1.70;;;;;;;;;;5090597;28;20363;-80
2021/11/04 03:46:38;;;;;;;1.50;1.50;;;;;;;;;;5091342;28;20201;-79
2021/11/04 03:49:25;;;;;;;1.50;1.50;;;;;;;;;;5090775;28;20656;-80
2021/11/04 03:52:10;;;;;;;1.50;1.43;;;;;;;;;;5091970;28;20227;-79
2021/11/04 03:54:56;;;;;;;1.70;1.60;;;;;;;;;;5094666;28;20181;-80
2021/11/04 03:57:42;;;;;;;1.40;1.40;;;;;;;;;;5094559;28;20665;-80
2021/11/04 04:00:28;;;;;;;4.30;1.70;;;;;;;;;;5094559;28;20267;-80
2021/11/04 04:03:13;;;;;;;1.63;1.60;;;;;;;;;;5094587;28;20189;-80
2021/11/04 04:06:00;;;;;;;1.53;1.53;;;;;;;;;;5094533;28;20570;-79
2021/11/04 04:08:47;;;;;;;1.40;1.40;;;;;;;;;;5094301;28;20747;-80
2021/11/04 04:11:32;;;;;;;1.67;1.57;;;;;;;;;;5094825;28;20355;-78
2021/11/04 04:14:17;;;;;;;2.80;1.50;;;;;;;;;;5094345;28;20189;-79
2021/11/04 04:17:02;;;;;;;2.30;1.80;;;;;;;;;;5094493;28;20343;-79
2021/11/04 04:19:47;;;;;;;1.40;1.40;;;;;;;;;;5094054;28;20181;-78
2021/11/04 04:22:33;;;;;;;2.03;1.63;;;;;;;;;;5094407;28;20338;-78
2021/11/04 04:25:18;;;;;;;1.80;1.70;;;;;;;;;;5093806;28;20687;-79
2021/11/04 04:28:04;;;;;;;4.17;2.00;;;;;;;;;;5094156;28;20560;-78
2021/11/04 04:30:49;;;;;;;1.70;1.67;;;;;;;;;;5094493;28;20192;-78
2021/11/04 04:33:34;;;;;;;1.90;1.80;;;;;;;;;;5094114;28;20553;-78
2021/11/04 04:36:19;;;;;;;2.23;1.90;;;;;;;;;;5093968;28;20558;-79
2021/11/04 04:39:05;;;;;;;2.10;2.00;;;;;;;;;;5093733;28;20189;-78
2021/11/04 04:41:50;;;;;;;2.00;1.90;;;;;;;;;;5093649;28;20228;-79
2021/11/04 04:44:36;;;;;;;3.17;2.20;;;;;;;;;;5093195;28;20581;-78
2021/11/04 04:47:21;;;;;;;2.30;2.20;;;;;;;;;;5093974;28;20243;-78
2021/11/04 04:50:07;;;;;;;2.87;2.67;;;;;;;;;;5093910;28;20240;-78
2021/11/04 04:52:52;;;;;;;2.40;2.30;;;;;;;;;;5093763;28;20185;-79
2021/11/04 04:55:38;;;;;;;2.70;2.10;;;;;;;;;;5094060;28;20746;-79
2021/11/04 04:58:23;;;;;;;2.90;2.10;;;;;;;;;;5093323;28;20208;-77
2021/11/04 05:01:09;;;;;;;2.33;2.23;;;;;;;;;;5093790;28;20242;-78
2021/11/04 05:03:54;;;;;;;2.73;2.50;;;;;;;;;;5092760;28;20193;-78
2021/11/04 05:06:39;;;;;;;2.40;2.30;;;;;;;;;;5093465;28;20254;-79
2021/11/04 05:09:24;;;;;;;2.93;2.73;;;;;;;;;;5093569;28;20204;-78
2021/11/04 05:12:10;;;;;;;2.90;2.70;;;;;;;;;;5093507;28;20181;-80
2021/11/04 05:14:55;;;;;;;2.73;2.63;;;;;;;;;;5093506;28;20185;-78
2021/11/04 05:17:41;;;;;;;4.23;2.73;;;;;;;;;;5093589;28;20651;-78
2021/11/04 05:20:26;;;;;;;4.37;2.73;;;;;;;;;;5093477;28;20639;-78
2021/11/04 05:23:11;;;;;;;4.40;2.80;;;;;;;;;;5093083;28;20193;-78
2021/11/04 05:25:56;;;;;;;5.43;2.53;;;;;;;;;;5093203;28;20697;-78
2021/11/04 05:28:43;;;;;;;3.27;2.60;;;;;;;;;;5092891;28;20185;-79
2021/11/04 05:31:28;;;;;;;2.97;2.83;;;;;;;;;;5093513;28;20185;-78
2021/11/04 05:34:13;;;;;;;2.50;2.40;;;;;;;;;;5092694;28;20255;-77
2021/11/04 05:36:58;;;;;;;3.40;3.10;;;;;;;;;;5093029;28;20189;-77
2021/11/04 05:39:43;;;;;;;4.73;2.70;;;;;;;;;;5092724;28;20209;-80
2021/11/04 05:42:28;;;;;;;4.20;2.87;;;;;;;;;;5093016;28;20270;-78
2021/11/04 05:45:14;;;;;;;2.90;2.70;;;;;;;;;;5092730;28;20212;-78
2021/11/04 05:47:59;;;;;;;3.00;2.73;;;;;;;;;;5092534;28;20266;-78
2021/11/04 05:50:44;;;;;;;3.23;3.03;;;;;;;;;;5092716;28;20232;-79
2021/11/04 05:53:29;;;;;;;3.33;3.07;;;;;;;;;;5092348;28;20286;-79
2021/11/04 05:56:14;;;;;;;3.50;3.20;;;;;;;;;;5092754;28;20708;-78
2021/11/04 05:59:00;;;;;;;3.23;2.97;;;;;;;;;;5092330;28;20278;-78
2021/11/04 06:01:46;;;;;;;3.53;3.33;;;;;;;;;;5092654;28;20227;-78
2021/11/04 06:04:34;;;;;;;4.53;3.17;;;;;;;;;;5091868;28;20184;-78
2021/11/04 06:07:19;;;;;;;3.33;3.10;;;;;;;;;;5091618;28;20185;-78
2021/11/04 06:10:05;;;;;;;3.60;3.30;;;;;;;;;;5092342;28;20209;-78
2021/11/04 06:12:50;;;;;;;3.17;3.00;;;;;;;;;;5092045;28;20546;-78
2021/11/04 06:15:35;;;;;;;3.67;3.43;;;;;;;;;;5092569;28;20189;-79
2021/11/04 06:18:22;;;;;;;3.37;3.17;;;;;;;;;;5092173;28;20185;-79
2021/11/04 06:21:07;;;;;;;3.77;3.40;;;;;;;;;;5092841;28;20201;-80
2021/11/04 06:23:52;;;;;;;4.30;3.40;;;;;;;;;;5092248;28;20200;-80
2021/11/04 06:26:37;;;;;;;3.73;3.43;;;;;;;;;;5092354;28;20351;-79
2021/11/04 06:29:22;;;;;;;3.70;3.50;;;;;;;;;;5091998;28;20284;-79
2021/11/04 06:32:08;;;;;;;3.43;3.23;;;;;;;;;;5092112;28;20262;-79
2021/11/04 06:34:54;;;;;;;3.57;3.30;;;;;;;;;;5092068;28;20719;-79
2021/11/04 06:37:40;;;;;;;4.23;3.93;;;;;;;;;;5091845;28;20189;-80
2021/11/04 06:40:26;;;;;;;3.00;2.90;;;;;;;;;;5091928;28;20236;-80
2021/11/04 06:43:12;;;;;;;4.27;3.87;;;;;;;;;;5091574;28;20197;-80
2021/11/04 06:46:00;;;;;;;3.50;3.27;;;;;;;;;;5091904;28;20198;-79
2021/11/04 06:48:48;;;;;;;3.70;3.20;;;;;;;;;;5090755;28;20250;-79
2021/11/04 06:51:36;;;;;;;5.10;3.77;;;;;;;;;;5092236;28;20268;-79
2021/11/04 06:54:23;;;;;;;3.60;3.40;;;;;;;;;;5091236;28;20184;-79
2021/11/04 06:57:08;;;;;;;5.17;3.73;;;;;;;;;;5091610;28;20188;-80
2021/11/04 06:59:56;;;;;;;4.67;3.30;;;;;;;;;;5091522;28;20201;-79
2021/11/04 07:02:43;;;;;;;3.90;3.60;;;;;;;;;;5091616;28;20673;-80
2021/11/04 07:05:28;;;;;;;3.83;3.50;;;;;;;;;;5091590;28;20664;-79
2021/11/04 07:08:20;;;;;;;3.93;3.63;;;;;;;;;;5091226;28;20724;-80
2021/11/04 07:11:05;;;;;;;4.00;3.70;;;;;;;;;;5091645;28;20235;-80
2021/11/04 07:13:51;;;;;;;4.10;3.80;;;;;;;;;;5091424;28;20185;-80
2021/11/04 07:16:36;;;;;;;4.10;3.80;;;;;;;;;;5091824;28;20294;-80
2021/11/04 07:19:23;;;;;;;4.20;3.80;;;;;;;;;;5091981;28;20184;-80
2021/11/04 07:22:13;;;;;;;4.23;3.90;;;;;;;;;;5091508;28;20193;-79
2021/11/04 07:25:04;;;;;;;6.60;5.00;;;;;;;;;;5091656;28;20192;-80
2021/11/04 07:27:54;;;;;;;5.83;5.23;;;;;;;;;;5093760;28;20267;-80
2021/11/04 07:30:40;;;;;;;5.43;4.93;;;;;;;;;;5095606;28;20596;-81
2021/11/04 07:33:27;;;;;;;5.10;4.70;;;;;;;;;;5095142;28;20197;-80
2021/11/04 07:36:14;;;;;;;8.13;6.37;;;;;;;;;;5095732;28;20680;-80
2021/11/04 07:38:59;;;;;;;9.57;7.50;;;;;;;;;;5095456;28;20204;-81
2021/11/04 07:41:45;;;;;;;9.77;8.23;;;;;;;;;;5095351;28;20228;-80
2021/11/04 07:44:30;;;;;;;11.53;8.93;;;;;;;;;;5094700;28;20557;-80
2021/11/04 07:47:16;;;;;;;11.17;9.70;;;;;;;;;;5095221;28;20799;-80
2021/11/04 07:50:01;;;;;;;14.07;10.73;;;;;;;;;;5094960;28;20310;-80
2021/11/04 07:52:46;;;;;;;13.13;10.80;;;;;;;;;;5094936;28;20247;-80
2021/11/04 07:55:31;;;;;;;15.73;11.47;;;;;;;;;;5094771;28;20201;-80
2021/11/04 07:58:18;;;;;;;13.67;12.27;;;;;;;;;;5094935;28;20734;-80
2021/11/04 08:01:03;;;;;;;14.80;12.30;;;;;;;;;;5095045;28;20545;-80
2021/11/04 08:03:48;;;;;;;17.20;13.57;;;;;;;;;;5095080;28;20561;-80
2021/11/04 08:06:33;;;;;;;17.73;14.07;;;;;;;;;;5095163;28;20204;-80
2021/11/04 08:09:18;;;;;;;17.30;13.93;;;;;;;;;;5094105;28;20571;-80
2021/11/04 08:12:03;;;;;;;20.77;15.67;;;;;;;;;;5094906;28;20182;-80
2021/11/04 08:14:50;;;;;;;18.70;15.50;;;;;;;;;;5094650;28;20201;-80
2021/11/04 08:17:35;;;;;;;21.00;15.97;;;;;;;;;;5094668;28;20185;-80
2021/11/04 08:20:20;;;;;;;24.60;17.30;;;;;;;;;;5094698;28;20253;-80
2021/11/04 08:23:08;;;;;;;25.00;18.17;;;;;;;;;;5094741;28;20506;-80
2021/11/04 08:25:53;;;;;;;26.03;17.70;;;;;;;;;;5094606;28;20257;-79
2021/11/04 08:28:38;;;;;;;22.83;17.93;;;;;;;;;;5093951;28;20647;-79
2021/11/04 08:31:25;;;;;;;23.93;16.57;;;;;;;;;;5093697;28;20189;-79
2021/11/04 08:34:10;;;;;;;22.17;16.43;;;;;;;;;;5094180;28;20255;-80
2021/11/04 08:36:55;;;;;;;23.07;17.20;;;;;;;;;;5094336;28;20240;-79
2021/11/04 08:39:40;;;;;;;24.43;17.40;;;;;;;;;;5092641;28;20315;-80
2021/11/04 08:42:26;;;;;;;24.10;18.57;;;;;;;;;;5094034;28;20201;-80
2021/11/04 08:45:11;;;;;;;25.37;18.10;;;;;;;;;;5094049;28;20181;-80
2021/11/04 08:47:58;;;;;;;28.40;19.73;;;;;;;;;;5094246;28;20279;-79
2021/11/04 08:50:43;;;;;;;29.23;17.70;;;;;;;;;;5093735;28;20351;-80
2021/11/04 08:53:28;;;;;;;27.93;19.27;;;;;;;;;;5093943;28;20296;-79
2021/11/04 08:56:13;;;;;;;27.33;18.63;;;;;;;;;;5093734;28;20297;-80
2021/11/04 08:58:58;;;;;;;23.00;18.00;;;;;;;;;;5093867;28;20181;-80
2021/11/04 09:01:44;;;;;;;23.00;17.93;;;;;;;;;;5093857;28;20184;-80
2021/11/04 09:04:31;;;;;;;22.90;17.43;;;;;;;;;;5093328;28;20220;-79
2021/11/04 09:07:17;;;;;;;23.80;18.20;;;;;;;;;;5093672;28;20217;-79
2021/11/04 09:10:04;;;;;;;25.07;17.07;;;;;;;;;;5093453;28;20576;-79
2021/11/04 09:12:49;;;;;;;27.77;17.10;;;;;;;;;;5093619;28;20189;-79
2021/11/04 09:15:34;;;;;;;23.27;16.30;;;;;;;;;;5093000;28;20271;-80
2021/11/04 09:18:20;;;;;;;20.77;16.00;;;;;;;;;;5093838;28;20644;-80
2021/11/04 09:21:06;;;;;;;21.53;15.13;;;;;;;;;;5092951;28;20185;-79
2021/11/04 09:23:54;;;;;;;21.80;13.97;;;;;;;;;;5093595;28;20205;-79
2021/11/04 09:26:40;;;;;;;17.07;13.67;;;;;;;;;;5093164;28;20209;-79
2021/11/04 09:29:26;;;;;;;18.50;13.30;;;;;;;;;;5092956;28;20181;-80
2021/11/04 09:32:12;;;;;;;14.10;12.13;;;;;;;;;;5093510;28;20193;-79
2021/11/04 09:34:57;;;;;;;16.40;12.60;;;;;;;;;;5092845;28;20266;-79
2021/11/04 09:37:44;;;;;;;15.77;10.90;;;;;;;;;;5093348;28;20672;-80
2021/11/04 09:40:29;;;;;;;17.20;12.27;;;;;;;;;;5092954;28;20247;-80
2021/11/04 09:43:14;;;;;;;16.13;11.97;;;;;;;;;;5093298;28;20699;-79
2021/11/04 09:46:00;;;;;;;17.23;11.27;;;;;;;;;;5093054;28;20252;-80
2021/11/04 09:48:45;;;;;;;12.00;10.07;;;;;;;;;;5092901;28;20666;-79
2021/11/04 09:51:31;;;;;;;11.17;9.30;;;;;;;;;;5092252;28;20348;-80
2021/11/04 09:54:17;;;;;;;13.33;10.50;;;;;;;;;;5092655;28;20184;-80
2021/11/04 09:57:02;;;;;;;12.70;10.33;;;;;;;;;;5092704;28;20185;-80
2021/11/04 09:59:47;;;;;;;10.77;8.80;;;;;;;;;;5092559;28;20204;-80
2021/11/04 10:02:32;;;;;;;11.53;10.17;;;;;;;;;;5092668;28;20189;-80
2021/11/04 10:05:17;;;;;;;11.27;9.03;;;;;;;;;;5092579;28;20748;-80
2021/11/04 10:08:03;;;;;;;11.37;9.20;;;;;;;;;;5092678;28;20244;-79
2021/11/04 10:11:03;;;;;;;10.97;9.43;;;;;;;;;;5092258;28;20190;-79
2021/11/04 10:13:49;;;;;;;14.33;9.90;;;;;;;;;;5092319;28;20188;-80
2021/11/04 10:16:35;;;;;;;11.60;9.40;;;;;;;;;;5092157;28;20188;-80
2021/11/04 10:19:20;;;;;;;10.87;8.80;;;;;;;;;;5092239;28;20185;-80
2021/11/04 10:22:07;;;;;;;14.23;9.20;;;;;;;;;;5092228;28;20858;-80
2021/11/04 10:24:53;;;;;;;9.90;8.93;;;;;;;;;;5091970;28;20209;-80
2021/11/04 10:27:40;;;;;;;10.07;8.93;;;;;;;;;;5092213;28;20209;-80
2021/11/04 10:30:37;;;;;;;10.37;8.43;;;;;;;;;;5091633;28;20205;-79
2021/11/04 10:33:23;;;;;;;9.40;8.17;;;;;;;;;;5091882;28;20189;-80
2021/11/04 10:36:09;;;;;;;15.03;9.13;;;;;;;;;;5091974;28;20180;-80
2021/11/04 10:38:55;;;;;;;9.27;8.27;;;;;;;;;;5091939;28;20266;-79
2021/11/04 10:41:41;;;;;;;9.97;8.77;;;;;;;;;;5091841;28;20304;-79
2021/11/04 10:44:31;;;;;;;11.27;8.30;;;;;;;;;;5092080;28;20194;-80
2021/11/04 10:47:17;;;;;;;9.53;7.60;;;;;;;;;;5091877;28;20209;-80
2021/11/04 10:50:03;;;;;;;10.57;9.37;;;;;;;;;;5091706;28;20220;-80
2021/11/04 10:52:48;;;;;;;8.87;7.97;;;;;;;;;;5092030;28;20547;-81
2021/11/04 10:55:33;;;;;;;10.53;7.47;;;;;;;;;;5091618;28;20327;-80
2021/11/04 10:58:28;;;;;;;9.03;8.10;;;;;;;;;;5091758;28;20177;-80
2021/11/04 11:01:25;;;;;;;9.37;8.47;;;;;;;;;;5089762;28;20692;-80
2021/11/04 11:04:12;;;;;;;16.23;8.83;;;;;;;;;;5091711;28;20234;-80
2021/11/04 11:06:58;;;;;;;8.87;7.87;;;;;;;;;;5091467;28;20270;-81
2021/11/04 11:09:43;;;;;;;9.00;8.10;;;;;;;;;;5091343;28;20181;-81
2021/11/04 11:12:29;;;;;;;8.20;7.30;;;;;;;;;;5091317;28;20185;-80
2021/11/04 11:15:14;;;;;;;9.67;8.17;;;;;;;;;;5091790;28;20644;-81
2021/11/04 11:18:00;;;;;;;8.97;7.87;;;;;;;;;;5091575;28;20703;-80
2021/11/04 11:20:46;;;;;;;11.70;8.23;;;;;;;;;;5091645;28;20189;-82
2021/11/04 11:23:32;;;;;;;8.83;7.87;;;;;;;;;;5091786;28;20189;-81
2021/11/04 11:26:17;;;;;;;8.10;6.90;;;;;;;;;;5091505;28;20192;-81
2021/11/04 11:29:02;;;;;;;8.90;7.33;;;;;;;;;;5091493;28;20213;-81
2021/11/04 11:31:49;;;;;;;8.53;7.63;;;;;;;;;;5091088;28;20741;-81
2021/11/04 11:34:39;;;;;;;8.83;7.93;;;;;;;;;;5091285;28;20193;-80
2021/11/04 11:37:24;;;;;;;8.70;7.80;;;;;;;;;;5091396;28;20181;-81
2021/11/04 11:40:11;;;;;;;10.50;7.77;;;;;;;;;;5091008;28;20291;-80
2021/11/04 11:42:57;;;;;;;7.90;7.10;;;;;;;;;;5091648;28;20189;-79
2021/11/04 11:45:43;;;;;;;7.43;6.73;;;;;;;;;;5090956;28;20260;-79
2021/11/04 11:48:28;;;;;;;8.03;7.20;;;;;;;;;;5090961;28;20359;-80
2021/11/04 11:51:34;;;;;;;6.80;6.13;;;;;;;;;;5091541;28;20224;-80
2021/11/04 11:54:19;;;;;;;7.90;6.60;;;;;;;;;;5091110;28;20228;-79
2021/11/04 11:57:12;;;;;;;8.13;6.60;;;;;;;;;;5091484;28;20315;-79
2021/11/04 11:59:58;;;;;;;7.13;6.43;;;;;;;;;;5090868;28;20255;-79
2021/11/04 12:02:45;;;;;;;7.00;6.30;;;;;;;;;;5091789;28;20186;-80
2021/11/04 12:05:37;;;;;;;8.17;7.17;;;;;;;;;;5091475;28;20264;-80
2021/11/04 12:08:36;;;;;;;6.97;6.33;;;;;;;;;;5090987;28;20204;-79
2021/11/04 12:11:37;;;;;;;8.60;7.13;;;;;;;;;;5091204;28;20193;-80
2021/11/04 12:14:29;;;;;;;6.70;6.10;;;;;;;;;;5094282;28;20181;-80
2021/11/04 12:17:15;;;;;;;7.03;5.87;;;;;;;;;;5094568;28;20255;-80
2021/11/04 12:20:01;;;;;;;5.87;5.33;;;;;;;;;;5094630;28;20184;-80
2021/11/04 12:22:46;;;;;;;6.00;5.40;;;;;;;;;;5095153;28;20549;-80
2021/11/04 12:25:32;;;;;;;6.93;5.77;;;;;;;;;;5094432;28;20189;-80
2021/11/04 12:28:17;;;;;;;6.77;6.07;;;;;;;;;;5094687;28;20707;-81
2021/11/04 12:31:11;;;;;;;7.60;6.37;;;;;;;;;;5094586;28;20228;-80
2021/11/04 12:33:57;;;;;;;7.50;5.97;;;;;;;;;;5094493;28;20269;-80
2021/11/04 12:36:43;;;;;;;6.10;5.50;;;;;;;;;;5094335;28;20193;-80
2021/11/04 12:39:29;;;;;;;5.63;5.17;;;;;;;;;;5094275;28;20271;-80
2021/11/04 12:42:17;;;;;;;6.40;5.80;;;;;;;;;;5094251;28;20189;-80
2021/11/04 12:45:02;;;;;;;6.47;5.87;;;;;;;;;;5094128;28;20197;-80
2021/11/04 12:47:57;;;;;;;6.47;5.77;;;;;;;;;;5094037;28;20275;-80
2021/11/04 12:50:44;;;;;;;8.23;5.93;;;;;;;;;;5094211;28;20216;-80
2021/11/04 12:53:29;;;;;;;5.80;5.23;;;;;;;;;;5094055;28;20327;-80
2021/11/04 12:56:14;;;;;;;6.13;5.53;;;;;;;;;;5093968;28;20181;-80
2021/11/04 12:59:00;;;;;;;6.40;5.60;;;;;;;;;;5094214;28;20653;-80
2021/11/04 13:01:55;;;;;;;7.27;5.67;;;;;;;;;;5093796;28;20193;-80
2021/11/04 13:04:42;;;;;;;9.20;6.00;;;;;;;;;;5093735;28;20653;-80
2021/11/04 13:07:28;;;;;;;5.93;5.43;;;;;;;;;;5093831;28;20534;-80
2021/11/04 13:10:17;;;;;;;6.37;5.77;;;;;;;;;;5093314;28;20193;-79
2021/11/04 13:13:03;;;;;;;6.17;5.57;;;;;;;;;;5093438;28;20185;-79
2021/11/04 13:15:49;;;;;;;6.27;5.77;;;;;;;;;;5092461;28;20205;-79
2021/11/04 13:18:35;;;;;;;8.93;5.80;;;;;;;;;;5093419;28;20181;-80
2021/11/04 13:21:22;;;;;;;6.83;5.93;;;;;;;;;;5093097;28;20186;-80
2021/11/04 13:24:08;;;;;;;6.40;5.77;;;;;;;;;;5092825;28;20177;-79
2021/11/04 13:26:53;;;;;;;6.50;5.80;;;;;;;;;;5093614;28;20790;-80
2021/11/04 13:29:47;;;;;;;6.37;5.77;;;;;;;;;;5092798;28;20212;-79
2021/11/04 13:32:34;;;;;;;7.37;5.97;;;;;;;;;;5093647;28;20645;-80
2021/11/04 13:35:31;;;;;;;5.90;5.33;;;;;;;;;;5092550;28;20192;-79
2021/11/04 13:38:18;;;;;;;8.50;5.40;;;;;;;;;;5092871;28;20194;-79
2021/11/04 13:41:05;;;;;;;6.13;5.53;;;;;;;;;;5092564;28;20232;-80
2021/11/04 13:43:50;;;;;;;6.50;5.60;;;;;;;;;;5092767;28;20654;-78
2021/11/04 13:46:43;;;;;;;8.70;5.47;;;;;;;;;;5092885;28;20185;-78
2021/11/04 13:49:30;;;;;;;6.93;5.60;;;;;;;;;;5092470;28;20217;-78
2021/11/04 13:52:24;;;;;;;7.67;5.63;;;;;;;;;;5093208;28;20204;-78
2021/11/04 13:55:26;;;;;;;7.00;5.40;;;;;;;;;;5092627;28;20724;-79
2021/11/04 13:58:11;;;;;;;10.53;5.83;;;;;;;;;;5092697;28;20656;-78
2021/11/04 14:01:04;;;;;;;7.60;6.50;;;;;;;;;;5093006;28;20189;-83
2021/11/04 14:04:04;;;;;;;7.10;6.40;;;;;;;;;;5092911;28;20231;-80
2021/11/04 14:06:51;;;;;;;7.53;6.63;;;;;;;;;;5092955;28;20188;-80
2021/11/04 14:09:37;;;;;;;6.67;6.03;;;;;;;;;;5092303;28;20212;-81
2021/11/04 14:12:25;;;;;;;9.50;7.03;;;;;;;;;;5092669;28;20189;-81
2021/11/04 14:15:11;;;;;;;8.00;6.50;;;;;;;;;;5092330;28;20316;-81
2021/11/04 14:17:57;;;;;;;7.47;6.77;;;;;;;;;;5092128;28;20184;-81
2021/11/04 14:20:42;;;;;;;6.60;6.00;;;;;;;;;;5092177;28;20231;-81
2021/11/04 14:23:28;;;;;;;7.87;7.07;;;;;;;;;;5092180;28;20227;-81
2021/11/04 14:26:13;;;;;;;8.00;6.53;;;;;;;;;;5092193;28;20209;-81
2021/11/04 14:28:58;;;;;;;7.37;6.70;;;;;;;;;;5091904;28;20205;-81
2021/11/04 14:31:46;;;;;;;6.73;6.07;;;;;;;;;;5092289;28;20541;-81
2021/11/04 14:34:31;;;;;;;7.47;6.20;;;;;;;;;;5092048;28;20189;-82
2021/11/04 14:37:16;;;;;;;8.03;6.47;;;;;;;;;;5091453;28;20247;-81
2021/11/04 14:40:02;;;;;;;6.57;5.97;;;;;;;;;;5091666;28;20185;-81
2021/11/04 14:42:47;;;;;;;6.33;5.77;;;;;;;;;;5092245;28;20752;-81
2021/11/04 14:45:32;;;;;;;7.03;6.27;;;;;;;;;;5091113;28;20691;-82
2021/11/04 14:48:17;;;;;;;6.73;6.03;;;;;;;;;;5091259;28;20193;-82
2021/11/04 14:51:05;;;;;;;7.23;6.40;;;;;;;;;;5091530;28;20228;-85
2021/11/04 14:53:50;;;;;;;6.57;5.97;;;;;;;;;;5091056;28;20274;-83
2021/11/04 14:56:36;;;;;;;7.10;6.30;;;;;;;;;;5091024;28;20189;-83
2021/11/04 14:59:21;;;;;;;6.73;6.03;;;;;;;;;;5090843;28;20189;-83
2021/11/04 15:02:06;;;;;;;7.43;6.13;;;;;;;;;;5092022;28;20320;-82
2021/11/04 15:04:51;;;;;;;9.37;7.00;;;;;;;;;;5091066;28;20180;-83
2021/11/04 15:07:36;;;;;;;7.77;6.90;;;;;;;;;;5091540;28;20271;-83
2021/11/04 15:10:21;;;;;;;7.60;6.80;;;;;;;;;;5091104;28;20729;-81
2021/11/04 15:13:08;;;;;;;7.27;6.57;;;;;;;;;;5091544;28;20231;-82
2021/11/04 15:15:53;;;;;;;9.80;7.07;;;;;;;;;;5091010;28;20640;-83
2021/11/04 15:18:38;;;;;;;11.43;7.33;;;;;;;;;;5090845;28;20284;-82
2021/11/04 15:21:23;;;;;;;11.67;6.83;;;;;;;;;;5090929;28;20307;-82
2021/11/04 15:24:08;;;;;;;13.50;6.40;;;;;;;;;;5091147;28;20196;-82
2021/11/04 15:26:53;;;;;;;7.53;6.10;;;;;;;;;;5091333;28;20266;-83
2021/11/04 15:29:40;;;;;;;8.97;6.40;;;;;;;;;;5091024;28;20205;-84
2021/11/04 15:32:25;;;;;;;7.47;6.17;;;;;;;;;;5091443;28;20259;-81
2021/11/04 15:35:10;;;;;;;6.60;5.80;;;;;;;;;;5091236;28;20189;-79
2021/11/04 15:37:55;;;;;;;6.37;5.47;;;;;;;;;;5091274;28;20691;-79
2021/11/04 15:40:41;;;;;;;6.23;5.63;;;;;;;;;;5091072;28;20799;-78
2021/11/04 15:43:26;;;;;;;6.07;5.17;;;;;;;;;;5091223;28;20262;-79
2021/11/04 15:46:13;;;;;;;10.13;5.73;;;;;;;;;;5091291;28;20189;-80
2021/11/04 15:48:58;;;;;;;7.87;5.47;;;;;;;;;;5093540;28;20379;-78
2021/11/04 15:51:43;;;;;;;5.67;5.17;;;;;;;;;;5095715;28;20291;-79
2021/11/04 15:54:28;;;;;;;6.27;4.80;;;;;;;;;;5094935;28;20879;-83
2021/11/04 15:57:13;;;;;;;4.87;4.23;;;;;;;;;;5095144;28;20256;-82
2021/11/04 15:59:58;;;;;;;6.13;5.53;;;;;;;;;;5094964;28;20230;-83
2021/11/04 16:02:44;;;;;;;7.03;4.97;;;;;;;;;;5093659;28;20645;-82
2021/11/04 16:05:30;;;;;;;6.63;4.83;;;;;;;;;;5094304;28;20197;-82
2021/11/04 16:08:16;;;;;;;5.40;4.90;;;;;;;;;;5094774;28;20192;-81
2021/11/04 16:11:01;;;;;;;7.03;4.67;;;;;;;;;;5094467;28;20207;-82
2021/11/04 16:13:46;;;;;;;8.47;4.80;;;;;;;;;;5093979;28;20286;-81
2021/11/04 16:16:31;;;;;;;5.60;4.67;;;;;;;;;;5094978;28;20260;-80
2021/11/04 16:19:18;;;;;;;6.27;5.20;;;;;;;;;;5094636;28;20223;-81
2021/11/04 16:22:03;;;;;;;6.47;5.87;;;;;;;;;;5095310;28;20185;-82
2021/11/04 16:24:48;;;;;;;8.10;6.50;;;;;;;;;;5094140;28;20192;-81
2021/11/04 16:27:34;;;;;;;8.87;5.43;;;;;;;;;;5094999;28;20189;-81
2021/11/04 16:30:20;;;;;;;5.43;4.70;;;;;;;;;;5094505;28;20521;-82
2021/11/04 16:33:06;;;;;;;5.33;4.80;;;;;;;;;;5094856;28;20185;-81